Time;durP1;ratioP1;P1;durP2;ratioP2;P2;SDS_P1;SDS_P2;PMS_P1;PMS_P2;Temp;Humidity;BMP_temperature;BMP_pressure;BME280_temperature;BME280_humidity;BME280_pressure;Samples;Min_cycle;Max_cycle;Signal;HPM_P1;HPM_P2
2023/05/30 05:42:09;;;;;;;;;5.33;3.67;;;;;20.82;48.29;101891.63;5114471;27;45689;-70
2023/05/30 05:44:35;;;;;;;;;4.67;3.00;;;;;20.98;48.21;101886.75;5102868;27;45946;-70
2023/05/30 05:47:00;;;;;;;;;6.67;4.00;;;;;21.18;48.10;101892.38;5103405;27;45907;-71
2023/05/30 05:49:25;;;;;;;;;2.33;2.00;;;;;21.35;48.23;101888.28;5105149;27;45477;-71
2023/05/30 05:51:51;;;;;;;;;6.00;4.00;;;;;21.56;48.12;101891.06;5102457;27;62439;-70
2023/05/30 05:54:16;;;;;;;;;3.00;3.00;;;;;21.75;47.92;101891.41;5105347;27;45547;-69
2023/05/30 05:56:42;;;;;;;;;4.67;3.67;;;;;21.92;47.73;101895.38;5104885;27;45523;-70
2023/05/30 05:59:08;;;;;;;;;5.00;5.00;;;;;22.09;46.58;101896.66;5105045;27;45470;-70
2023/05/30 06:01:33;;;;;;;;;3.33;3.00;;;;;22.21;46.69;101892.03;5106732;27;46286;-70
2023/05/30 06:04:01;;;;;;;;;5.67;3.67;;;;;22.35;46.87;101889.00;5105728;27;47090;-71
2023/05/30 06:06:26;;;;;;;;;6.00;4.33;;;;;22.45;46.54;101891.78;5107297;27;45421;-71
2023/05/30 06:08:51;;;;;;;;;8.33;5.00;;;;;22.60;46.26;101907.69;5101555;27;45480;-71
2023/05/30 06:11:17;;;;;;;;;5.00;5.00;;;;;22.71;45.96;101901.31;5100104;27;52625;-72
2023/05/30 06:13:42;;;;;;;;;4.67;3.67;;;;;22.80;45.76;101907.78;5099100;27;53762;-71
2023/05/30 06:16:07;;;;;;;;;6.00;4.67;;;;;22.88;45.48;101908.81;5107054;27;45814;-70
2023/05/30 06:18:33;;;;;;;;;5.00;4.33;;;;;22.96;45.58;101908.13;5105315;27;45457;-70
2023/05/30 06:20:58;;;;;;;;;5.00;4.00;;;;;23.04;45.25;101915.56;5104243;27;51955;-70
2023/05/30 06:23:24;;;;;;;;;3.67;3.67;;;;;23.11;44.58;101918.59;5106611;27;53428;-70
2023/05/30 06:25:49;;;;;;;;;6.33;5.00;;;;;23.18;44.80;101917.06;5107729;27;45834;-71
2023/05/30 06:28:14;;;;;;;;;4.33;3.33;;;;;23.23;44.37;101914.78;5093050;27;45848;-71
2023/05/30 06:30:40;;;;;;;;;7.33;4.00;;;;;23.27;44.54;101909.94;5106595;27;52768;-73
2023/05/30 06:33:05;;;;;;;;;5.00;3.00;;;;;23.32;44.37;101910.38;5105002;27;45519;-72
2023/05/30 06:35:30;;;;;;;;;3.00;3.00;;;;;23.37;43.97;101918.97;5106590;27;48478;-71
2023/05/30 06:37:56;;;;;;;;;5.67;3.67;;;;;23.42;43.83;101905.03;5092834;27;45543;-71
2023/05/30 06:40:21;;;;;;;;;4.33;4.00;;;;;23.46;43.81;101900.19;5102991;27;50489;-72
2023/05/30 06:42:46;;;;;;;;;1.00;1.00;;;;;23.49;43.83;101902.59;5101177;27;45518;-71
2023/05/30 06:45:12;;;;;;;;;7.67;4.33;;;;;23.52;44.17;101903.19;5090729;27;55035;-73
2023/05/30 06:47:38;;;;;;;;;4.00;4.00;;;;;23.53;44.01;101904.88;5103031;27;45575;-70
2023/05/30 06:50:05;;;;;;;;;6.33;5.00;;;;;23.55;44.00;101913.72;5097842;27;46302;-70
2023/05/30 06:52:30;;;;;;;;;5.00;5.00;;;;;23.57;43.68;101907.34;5087596;27;45821;-70
2023/05/30 06:54:56;;;;;;;;;4.00;4.00;;;;;23.56;43.28;101909.16;5081730;27;45575;-71
2023/05/30 06:57:21;;;;;;;;;5.33;5.33;;;;;23.57;43.06;101916.31;5078447;27;45736;-70
2023/05/30 06:59:46;;;;;;;;;2.33;2.33;;;;;23.57;45.19;101918.16;5088027;27;55017;-71
2023/05/30 07:02:12;;;;;;;;;5.00;3.00;;;;;23.54;44.86;101919.31;5083606;27;45443;-72
2023/05/30 07:04:37;;;;;;;;;4.00;2.33;;;;;23.52;44.44;101915.88;5080451;27;45580;-72
2023/05/30 07:07:03;;;;;;;;;6.00;5.00;;;;;23.52;43.75;101921.28;5083503;27;45665;-72
2023/05/30 07:09:28;;;;;;;;;5.00;3.00;;;;;23.51;43.08;101923.13;5081024;27;45493;-72
2023/05/30 07:11:54;;;;;;;;;4.67;4.67;;;;;23.51;43.20;101930.41;5083967;27;45466;-71
2023/05/30 07:14:19;;;;;;;;;5.67;4.00;;;;;23.51;43.09;101927.72;5085415;27;45805;-72
2023/05/30 07:16:45;;;;;;;;;4.00;4.00;;;;;23.52;42.55;101935.69;5078172;27;53720;-71
2023/05/30 07:19:10;;;;;;;;;4.33;4.33;;;;;23.53;42.45;101932.00;5078901;27;45710;-71
2023/05/30 07:21:36;;;;;;;;;3.33;3.33;;;;;23.54;42.93;101922.84;5076469;27;45818;-71
2023/05/30 07:24:01;;;;;;;;;4.67;4.00;;;;;23.56;42.68;101920.00;5084631;27;45424;-71
2023/05/30 07:26:27;;;;;;;;;6.33;4.00;;;;;23.57;42.66;101920.88;5075585;27;45653;-71
2023/05/30 07:28:52;;;;;;;;;4.00;4.00;;;;;23.56;42.32;101925.44;5091019;27;46171;-71
2023/05/30 07:31:17;;;;;;;;;5.33;4.00;;;;;23.59;42.21;101921.59;5089519;27;49037;-71
2023/05/30 07:33:43;;;;;;;;;6.00;4.33;;;;;23.58;41.91;101917.16;5087204;27;45586;-72
2023/05/30 07:36:09;;;;;;;;;4.33;3.67;;;;;23.57;42.02;101913.59;5091357;27;45484;-71
2023/05/30 07:38:34;;;;;;;;;3.33;3.33;;;;;23.58;41.73;101919.88;5080856;27;46126;-71
2023/05/30 07:40:59;;;;;;;;;8.33;5.67;;;;;23.59;41.96;101922.44;5091417;27;45414;-71
2023/05/30 07:43:25;;;;;;;;;5.00;4.00;;;;;23.59;41.47;101922.44;5078796;27;48705;-71
2023/05/30 07:45:50;;;;;;;;;5.00;5.00;;;;;23.59;41.48;101918.88;5090353;27;45453;-72
2023/05/30 07:48:15;;;;;;;;;6.00;4.00;;;;;23.59;40.64;101918.88;5081875;27;46001;-71
2023/05/30 07:50:41;;;;;;;;;5.00;4.33;;;;;23.58;41.10;101920.72;5082170;27;45763;-72
2023/05/30 07:53:06;;;;;;;;;4.00;4.00;;;;;23.59;40.81;101918.88;5087184;27;45606;-72
2023/05/30 07:55:31;;;;;;;;;4.33;3.00;;;;;23.58;41.25;101941.56;5075102;27;45433;-72
2023/05/30 07:57:57;;;;;;;;;4.00;4.00;;;;;23.58;41.80;101934.25;5083922;27;45489;-73
2023/05/30 08:00:23;;;;;;;;;4.67;4.00;;;;;23.61;42.37;101933.13;5074162;27;45411;-73
2023/05/30 08:02:48;;;;;;;;;3.00;3.00;;;;;23.63;42.72;101948.25;5078505;27;46355;-74
2023/05/30 08:05:14;;;;;;;;;5.00;3.33;;;;;23.67;42.92;101954.28;5072719;27;45485;-73
2023/05/30 08:07:39;;;;;;;;;3.00;3.00;;;;;23.70;43.67;101940.41;5080454;27;46158;-73
2023/05/30 08:10:05;;;;;;;;;5.67;4.33;;;;;23.73;44.01;101950.13;5073238;27;45543;-73
2023/05/30 08:12:30;;;;;;;;;3.00;3.00;;;;;23.75;43.96;101938.13;5081841;27;45580;-73
2023/05/30 08:14:56;;;;;;;;;3.33;2.00;;;;;23.78;44.12;101940.56;5073712;27;45975;-73
2023/05/30 08:17:23;;;;;;;;;4.00;3.67;;;;;23.81;44.10;101942.16;5079424;27;46388;-74
2023/05/30 08:19:52;;;;;;;;;4.00;4.00;;;;;23.82;44.39;101941.13;5081429;27;45747;-73
2023/05/30 08:22:21;;;;;;;;;2.00;2.00;;;;;23.86;44.36;101939.03;5082263;27;45649;-74
2023/05/30 08:24:48;;;;;;;;;4.67;3.00;;;;;23.90;44.00;101935.00;5078684;27;45790;-74
2023/05/30 08:27:13;;;;;;;;;4.00;4.00;;;;;23.92;44.53;101935.75;5080862;27;46199;-74
2023/05/30 08:29:40;;;;;;;;;3.00;2.00;;;;;23.93;44.49;101932.88;5089373;27;52844;-74
2023/05/30 08:32:06;;;;;;;;;3.67;3.67;;;;;23.97;44.27;101940.72;5089911;27;45620;-73
2023/05/30 08:34:31;;;;;;;;;2.00;2.00;;;;;23.99;44.52;101936.88;5087699;27;45404;-72
2023/05/30 08:36:57;;;;;;;;;5.67;5.00;;;;;24.01;42.02;101934.00;5085459;27;46277;-72
2023/05/30 08:39:22;;;;;;;;;4.00;4.00;;;;;23.99;41.21;101926.03;5080429;27;45867;-72
2023/05/30 08:41:48;;;;;;;;;5.33;5.00;;;;;23.98;41.40;101923.47;5083082;27;45924;-70
2023/05/30 08:44:13;;;;;;;;;5.67;3.33;;;;;23.97;41.05;101929.88;5087113;27;45828;-69
2023/05/30 10:57:23;;;;;;;;;4.67;4.67;;;;;21.11;49.22;101875.81;5052777;27;45742;-70
2023/05/30 10:59:49;;;;;;;;;5.00;3.33;;;;;21.26;49.22;101873.69;5052790;27;45828;-71
2023/05/30 11:02:20;;;;;;;;;3.00;3.00;;;;;21.44;49.31;101865.94;5040249;28;45750;-69
2023/05/30 11:04:49;;;;;;;;;4.00;3.67;;;;;21.65;47.99;101867.81;5045957;27;45646;-71
2023/05/30 11:07:16;;;;;;;;;4.00;4.00;;;;;21.83;47.53;101860.03;5056049;28;48416;-70
2023/05/30 11:09:59;;;;;;;;;5.00;3.00;;;;;22.01;47.76;101848.63;5040014;28;45505;-70
2023/05/30 13:07:54;;;;;;;;;7.00;5.00;;;;;21.11;50.87;101813.72;5038610;27;46616;-73
2023/05/30 13:10:19;;;;;;;;;4.67;4.00;;;;;21.27;50.76;101816.03;5038827;28;45641;-72
2023/05/30 13:12:45;;;;;;;;;6.00;5.00;;;;;21.48;50.80;101811.63;5044687;28;45489;-71
2023/05/30 13:15:10;;;;;;;;;3.33;2.00;;;;;21.68;50.19;101821.63;5046451;28;45723;-71
2023/05/30 13:17:36;;;;;;;;;7.67;4.00;;;;;21.86;50.21;101826.47;5044433;28;46417;-72
2023/05/30 13:20:04;;;;;;;;;5.00;3.00;;;;;22.03;50.10;101816.06;5043737;28;51491;-70
2023/05/30 13:22:29;;;;;;;;;8.33;4.00;;;;;22.20;49.74;101812.75;5039594;28;45368;-72
2023/05/30 13:24:55;;;;;;;;;4.67;4.00;;;;;22.37;49.11;101815.84;5037464;28;45368;-72
2023/05/30 13:27:21;;;;;;;;;4.67;3.00;;;;;22.49;48.92;101808.50;5045532;28;45453;-71
2023/05/30 13:29:46;;;;;;;;;3.33;3.33;;;;;22.63;48.74;101810.00;5043564;28;46086;-73
2023/05/30 13:32:11;;;;;;;;;4.00;4.00;;;;;22.73;48.56;101804.63;5044838;28;45734;-71
2023/05/30 13:34:37;;;;;;;;;4.33;4.33;;;;;22.82;48.69;101808.34;5045481;28;45559;-71
2023/05/30 13:37:02;;;;;;;;;2.67;2.67;;;;;22.92;48.09;101800.25;5044398;28;53138;-72
2023/05/30 13:39:27;;;;;;;;;6.00;5.00;;;;;22.98;47.83;101794.28;5045481;28;45425;-73
2023/05/30 13:41:53;;;;;;;;;5.00;3.00;;;;;23.06;47.87;101794.44;5044462;28;45498;-73
2023/05/30 13:44:19;;;;;;;;;4.33;4.00;;;;;23.12;47.98;101795.72;5045762;28;45598;-73
2023/05/30 13:46:44;;;;;;;;;6.00;4.33;;;;;23.17;47.79;101790.75;5042569;28;46829;-73
2023/05/30 13:49:10;;;;;;;;;5.33;4.00;;;;;23.24;47.64;101796.44;5045499;28;45472;-72
2023/05/30 13:51:36;;;;;;;;;6.33;3.67;;;;;23.27;47.65;101788.91;5041089;28;45420;-72
2023/05/30 13:54:03;;;;;;;;;6.00;4.00;;;;;23.32;47.51;101785.78;5044932;28;45422;-72
2023/05/30 13:56:28;;;;;;;;;3.67;3.00;;;;;23.38;47.27;101789.81;5042613;28;45926;-71
2023/05/30 13:58:54;;;;;;;;;3.00;3.00;;;;;23.42;47.18;101783.94;5045532;28;45555;-70
2023/05/30 14:01:20;;;;;;;;;4.67;4.00;;;;;23.47;46.93;101788.09;5043896;28;45800;-70
2023/05/30 14:03:46;;;;;;;;;5.00;4.33;;;;;23.49;46.76;101767.97;5045434;28;45558;-71
2023/05/30 14:06:11;;;;;;;;;4.00;2.67;;;;;23.51;46.75;101767.84;5044618;28;45965;-70
2023/05/30 14:08:36;;;;;;;;;1.33;1.33;;;;;23.55;46.78;101777.41;5041868;28;47332;-71
2023/05/30 14:11:02;;;;;;;;;3.67;3.67;;;;;23.55;46.58;101775.53;5042522;28;45669;-73
2023/05/30 14:13:27;;;;;;;;;3.00;3.00;;;;;23.59;46.68;101772.53;5044352;28;45698;-70
2023/05/30 14:15:53;;;;;;;;;4.00;4.00;;;;;23.62;46.63;101772.25;5044387;28;46162;-71
2023/05/30 14:18:18;;;;;;;;;4.33;4.33;;;;;23.63;46.58;101773.97;5037093;28;45712;-71
2023/05/30 14:20:44;;;;;;;;;3.33;3.33;;;;;23.65;46.41;101770.09;5024926;28;45483;-71
2023/05/30 14:23:10;;;;;;;;;4.33;3.67;;;;;23.64;46.48;101760.28;5030739;28;45641;-73
2023/05/30 14:25:36;;;;;;;;;3.67;3.67;;;;;23.69;46.29;101765.25;5029078;28;45749;-73
2023/05/30 14:28:01;;;;;;;;;3.67;3.67;;;;;23.72;46.37;101766.81;5030364;28;45393;-72
2023/05/30 14:30:28;;;;;;;;;5.33;4.00;;;;;23.73;46.24;101752.25;5021476;28;45503;-71
2023/05/30 14:32:53;;;;;;;;;3.33;3.33;;;;;23.75;46.07;101761.09;5031419;28;45711;-71
2023/05/30 14:35:19;;;;;;;;;5.33;4.00;;;;;23.81;45.90;101772.22;5029867;28;46047;-71
2023/05/30 14:37:47;;;;;;;;;3.33;3.33;;;;;23.87;45.69;101767.22;5032040;28;45752;-71
2023/05/30 14:40:13;;;;;;;;;2.33;2.00;;;;;23.91;45.65;101769.47;5029662;28;45709;-72
2023/05/30 14:42:39;;;;;;;;;4.00;3.00;;;;;23.95;45.91;101765.47;5030542;28;45392;-70
2023/05/30 14:45:05;;;;;;;;;3.00;3.00;;;;;24.02;45.81;101773.00;5030481;28;46665;-70
2023/05/30 14:47:32;;;;;;;;;3.33;3.00;;;;;24.04;45.17;101777.28;5032129;28;45447;-71
2023/05/30 14:49:57;;;;;;;;;2.00;2.00;;;;;24.09;45.41;101774.19;5030159;28;45416;-71
2023/05/30 14:52:22;;;;;;;;;3.00;3.00;;;;;24.12;45.51;101779.31;5031050;28;45618;-75
2023/05/30 14:54:48;;;;;;;;;4.00;2.00;;;;;24.15;45.15;101770.88;5029427;28;45918;-73
2023/05/30 14:57:13;;;;;;;;;5.33;4.00;;;;;24.17;45.20;101779.72;5030755;28;51714;-74
2023/05/30 14:59:38;;;;;;;;;3.00;3.00;;;;;24.20;45.20;101775.88;5030357;28;45688;-73
2023/05/30 15:02:04;;;;;;;;;3.00;3.00;;;;;24.21;45.01;101778.41;5030816;28;45559;-73
2023/05/30 15:04:31;;;;;;;;;3.67;3.00;;;;;24.24;45.01;101782.72;5030137;28;45947;-74
2023/05/30 15:06:57;;;;;;;;;4.00;4.00;;;;;24.26;45.18;101782.53;5030267;28;45838;-75
2023/05/30 15:09:22;;;;;;;;;3.67;3.00;;;;;24.29;45.14;101784.97;5029856;28;45602;-76
2023/05/30 15:11:47;;;;;;;;;3.00;3.00;;;;;24.32;45.33;101788.22;5029668;28;45606;-72
2023/05/30 15:14:13;;;;;;;;;5.67;3.67;;;;;24.36;45.19;101791.50;5030489;28;45808;-73
2023/05/30 15:16:39;;;;;;;;;2.00;2.00;;;;;24.39;45.17;101777.63;5027452;28;45690;-72
2023/05/30 15:19:04;;;;;;;;;2.33;2.00;;;;;24.41;45.31;101786.50;5030472;28;45528;-73
2023/05/30 15:21:32;;;;;;;;;2.67;2.67;;;;;24.44;45.55;101788.91;5029509;28;45866;-72
2023/05/30 15:23:58;;;;;;;;;2.67;2.67;;;;;24.47;45.46;101794.03;5026802;28;45626;-74
2023/05/30 15:26:24;;;;;;;;;4.33;4.00;;;;;24.50;45.45;101787.44;5022172;28;46131;-73
2023/05/30 15:28:49;;;;;;;;;3.67;2.00;;;;;24.52;45.42;101790.84;5018962;28;45576;-72
2023/05/30 15:31:18;;;;;;;;;3.33;3.33;;;;;24.56;45.38;101788.72;5027029;28;45755;-72
2023/05/30 15:33:45;;;;;;;;;4.33;2.67;;;;;24.58;45.26;101789.41;5028457;28;45577;-74
2023/05/30 15:36:10;;;;;;;;;4.33;3.33;;;;;24.60;44.71;101779.25;5030732;28;45561;-73
2023/05/30 15:38:36;;;;;;;;;4.00;2.00;;;;;24.59;44.73;101781.13;5030481;28;45968;-74
2023/05/30 15:41:01;;;;;;;;;3.33;3.00;;;;;24.58;44.76;101784.84;5028441;28;45538;-73
2023/05/30 15:43:26;;;;;;;;;3.00;3.00;;;;;24.57;44.76;101779.56;5025498;28;52452;-72
2023/05/30 15:45:51;;;;;;;;;3.33;3.33;;;;;24.55;44.42;101781.56;5030346;28;55619;-74
2023/05/30 15:48:17;;;;;;;;;2.00;2.00;;;;;24.53;44.62;101772.72;5022570;28;45792;-71
2023/05/30 15:50:42;;;;;;;;;3.00;3.00;;;;;24.50;44.41;101776.59;5020809;28;45732;-71
2023/05/30 15:53:08;;;;;;;;;4.00;3.67;;;;;24.48;44.22;101775.88;5026624;28;62193;-71
2023/05/30 15:55:33;;;;;;;;;5.67;2.67;;;;;24.48;43.89;101773.16;5029120;28;45768;-71
2023/05/30 15:57:58;;;;;;;;;3.00;2.33;;;;;24.46;44.11;101770.63;5027174;28;45482;-70
2023/05/30 16:00:24;;;;;;;;;3.00;3.00;;;;;24.46;43.88;101767.91;5027381;28;50344;-71
2023/05/30 16:02:49;;;;;;;;;3.33;3.33;;;;;24.43;44.18;101764.63;5029899;28;46264;-71
2023/05/30 16:05:15;;;;;;;;;2.67;2.67;;;;;24.41;43.90;101762.09;5028807;28;52007;-71
2023/05/30 16:07:40;;;;;;;;;5.67;4.00;;;;;24.42;44.12;101757.50;5028750;28;45419;-71
2023/05/30 16:10:06;;;;;;;;;4.00;3.00;;;;;24.42;43.60;101757.50;5029167;28;45562;-71
2023/05/30 16:12:32;;;;;;;;;3.67;2.33;;;;;24.40;43.78;101765.78;5029930;28;46363;-71
2023/05/30 16:14:57;;;;;;;;;4.33;3.00;;;;;24.39;43.53;101752.38;5030331;28;45619;-71
2023/05/30 16:17:23;;;;;;;;;2.00;2.00;;;;;24.37;44.39;101746.22;5030566;28;55054;-70
2023/05/30 16:19:49;;;;;;;;;3.67;2.00;;;;;24.37;44.02;101752.53;5029868;28;45440;-70
2023/05/30 16:22:14;;;;;;;;;4.00;2.00;;;;;24.36;43.85;101750.78;5021851;28;46184;-71
2023/05/30 16:24:40;;;;;;;;;3.00;3.00;;;;;24.37;44.08;101751.66;5023859;28;45507;-71
2023/05/30 16:27:06;;;;;;;;;5.33;4.00;;;;;24.36;44.29;101748.09;5028711;28;52606;-71
2023/05/30 16:29:32;;;;;;;;;3.67;3.67;;;;;24.37;43.94;101738.09;5028314;28;45602;-73
2023/05/30 16:31:57;;;;;;;;;2.67;2.67;;;;;24.34;44.06;101734.69;5029073;28;45467;-72
2023/05/30 16:34:23;;;;;;;;;3.67;3.67;;;;;24.36;44.45;101739.94;5028347;28;45408;-73
2023/05/30 16:36:49;;;;;;;;;3.00;3.00;;;;;24.37;43.87;101735.38;5025777;28;45550;-72
2023/05/30 16:39:14;;;;;;;;;2.67;2.00;;;;;24.37;43.94;101727.25;5030273;28;45765;-73
2023/05/30 16:41:40;;;;;;;;;3.00;3.00;;;;;24.37;43.87;101724.53;5028815;28;46067;-73
2023/05/30 16:44:06;;;;;;;;;2.00;2.00;;;;;24.37;43.81;101728.09;5024362;28;45571;-72
2023/05/30 16:46:32;;;;;;;;;2.00;2.00;;;;;24.39;44.20;101717.09;5029290;28;45564;-72
2023/05/30 16:48:58;;;;;;;;;3.00;3.00;;;;;24.39;43.97;101714.41;5028454;28;45479;-71
2023/05/30 16:51:24;;;;;;;;;4.00;4.00;;;;;24.38;43.78;101710.81;5024681;28;47131;-72
2023/05/30 16:53:50;;;;;;;;;3.00;2.00;;;;;24.40;44.14;101714.22;5026866;28;45606;-72
2023/05/30 16:56:16;;;;;;;;;5.00;4.00;;;;;24.40;44.25;101718.81;5027842;28;45983;-71
2023/05/30 16:58:41;;;;;;;;;2.00;2.00;;;;;24.42;44.02;101723.09;5027467;28;45435;-72
2023/05/30 17:01:07;;;;;;;;;4.00;3.00;;;;;24.43;44.05;101727.50;5029346;28;45506;-71
2023/05/30 17:03:34;;;;;;;;;2.67;2.00;;;;;24.46;43.99;101723.63;5027457;28;45557;-71
2023/05/30 17:06:00;;;;;;;;;3.00;3.00;;;;;24.45;43.94;101717.34;5027635;28;45526;-71
2023/05/30 17:08:26;;;;;;;;;3.33;2.33;;;;;24.45;43.80;101713.78;5029008;28;45644;-72
2023/05/30 17:10:52;;;;;;;;;3.67;2.67;;;;;24.45;44.00;101721.94;5028195;28;46386;-71
2023/05/30 17:13:17;;;;;;;;;3.00;3.00;;;;;24.44;43.47;101710.19;5028687;28;45754;-71
2023/05/30 17:15:44;;;;;;;;;4.33;3.00;;;;;24.45;43.87;101706.47;5029261;28;45558;-71
2023/05/30 17:18:10;;;;;;;;;5.00;4.00;;;;;24.45;43.83;101713.78;5029198;28;46334;-72
2023/05/30 17:20:35;;;;;;;;;3.00;2.00;;;;;24.44;43.78;101710.19;5028251;28;45976;-72
2023/05/30 17:23:00;;;;;;;;;1.00;1.00;;;;;24.46;44.32;101713.63;5024512;28;45628;-71
2023/05/30 17:25:27;;;;;;;;;2.33;2.33;;;;;24.50;43.86;101707.88;5024352;28;45787;-71
2023/05/30 17:27:55;;;;;;;;;2.33;2.33;;;;;24.51;43.64;101712.31;5027889;28;45569;-71
2023/05/30 17:30:20;;;;;;;;;1.33;1.33;;;;;24.52;43.77;101714.88;5026618;28;45881;-73
2023/05/30 17:32:46;;;;;;;;;4.00;3.33;;;;;24.50;44.01;101714.19;5024156;28;45664;-72
2023/05/30 17:35:11;;;;;;;;;3.00;3.00;;;;;24.53;44.13;101713.03;5026999;28;45643;-72
2023/05/30 17:37:37;;;;;;;;;2.00;2.00;;;;;24.51;43.98;101713.16;5028477;28;45776;-72
2023/05/30 17:40:02;;;;;;;;;3.67;3.33;;;;;24.53;43.56;101713.88;5027981;28;46013;-72
2023/05/30 17:42:27;;;;;;;;;4.00;4.00;;;;;24.54;43.84;101709.28;5025260;28;45732;-71
2023/05/30 17:44:54;;;;;;;;;5.00;3.33;;;;;24.53;43.75;101713.03;5016982;28;45870;-71
2023/05/30 17:47:19;;;;;;;;;3.00;1.00;;;;;24.50;43.82;101722.31;5019391;28;47116;-72
2023/05/30 17:49:45;;;;;;;;;5.00;2.33;;;;;24.48;43.60;101714.31;5023751;28;48462;-72
2023/05/30 17:52:11;;;;;;;;;4.67;1.67;;;;;24.45;44.39;101714.63;5023281;28;45712;-81
2023/05/30 17:54:38;;;;;;;;;5.33;4.00;;;;;24.42;44.18;101709.50;5026968;28;45515;-76
2023/05/30 17:57:05;;;;;;;;;3.67;3.67;;;;;24.44;44.29;101712.91;5026051;28;45574;-76
2023/05/30 17:59:31;;;;;;;;;3.33;3.33;;;;;24.42;43.66;101711.38;5029509;28;46127;-77
2023/05/30 18:01:56;;;;;;;;;4.67;2.67;;;;;24.42;44.05;101714.06;5026794;28;47121;-76
2023/05/30 18:04:21;;;;;;;;;3.33;2.00;;;;;24.41;44.15;101713.25;5025623;28;46072;-77
2023/05/30 18:06:47;;;;;;;;;3.00;3.00;;;;;24.39;43.86;101712.53;5027283;28;46637;-76
2023/05/30 18:09:13;;;;;;;;;5.67;3.00;;;;;24.39;43.53;101714.41;5025652;28;47155;-76
2023/05/30 18:11:40;;;;;;;;;3.67;2.00;;;;;24.38;43.94;101716.25;5028444;28;45819;-76
2023/05/30 18:14:05;;;;;;;;;2.00;2.00;;;;;24.40;44.05;101716.09;5024425;28;45794;-76
2023/05/30 18:16:32;;;;;;;;;8.00;3.00;;;;;24.38;43.73;101718.09;5023347;28;45625;-76
2023/05/30 18:18:57;;;;;;;;;4.67;3.00;;;;;24.36;43.86;101720.94;5028010;28;45537;-76
2023/05/30 18:21:22;;;;;;;;;3.00;3.00;;;;;24.36;43.80;101725.53;5025557;28;52184;-78
2023/05/30 18:23:47;;;;;;;;;4.00;4.00;;;;;24.34;43.29;101726.56;5025319;28;45842;-75
2023/05/30 18:26:13;;;;;;;;;3.00;2.00;;;;;24.33;43.64;101727.53;5028273;28;46552;-76
2023/05/30 18:28:38;;;;;;;;;3.00;3.00;;;;;24.34;43.79;101723.84;5030008;28;45512;-76
2023/05/30 18:31:03;;;;;;;;;2.33;2.33;;;;;24.33;43.70;101730.25;5029500;28;53804;-75
2023/05/30 18:33:29;;;;;;;;;3.00;3.00;;;;;24.33;43.92;101726.69;5030879;28;45742;-76
2023/05/30 18:35:55;;;;;;;;;3.33;2.00;;;;;24.29;43.92;101730.72;5029718;28;45494;-77
2023/05/30 18:38:20;;;;;;;;;4.67;2.33;;;;;24.28;43.80;101726.28;5020705;28;47115;-76
2023/05/30 19:08:54;;;;;;;;;3.00;3.00;;;;;22.69;46.47;101727.41;5065806;27;45656;-76
2023/05/30 19:11:20;;;;;;;;;6.67;3.67;;;;;22.74;46.71;101726.00;5064952;28;45545;-73
2023/05/30 19:13:45;;;;;;;;;3.33;2.00;;;;;22.83;46.83;101724.31;5066855;28;45690;-75
2023/05/30 19:16:10;;;;;;;;;4.00;4.00;;;;;22.94;46.68;101723.34;5066050;28;45877;-76
2023/05/30 19:18:36;;;;;;;;;3.00;3.00;;;;;23.06;46.65;101725.91;5064394;28;46237;-75
2023/05/30 19:21:01;;;;;;;;;4.00;4.00;;;;;23.17;46.54;101721.19;5066760;27;45479;-75
2023/05/30 19:23:26;;;;;;;;;3.33;3.00;;;;;23.29;46.03;101729.16;5060860;28;45447;-73
2023/05/30 19:25:51;;;;;;;;;3.00;3.00;;;;;23.39;46.14;101723.78;5063481;28;45674;-75
2023/05/30 19:28:17;;;;;;;;;3.00;2.00;;;;;23.51;45.56;101730.75;5066408;27;45514;-74
2023/05/30 19:30:42;;;;;;;;;3.00;3.00;;;;;23.62;45.58;101728.91;5063629;28;45474;-74
2023/05/30 19:33:08;;;;;;;;;5.00;4.00;;;;;23.71;45.63;101724.44;5061632;28;45513;-75
2023/05/30 19:35:34;;;;;;;;;3.33;3.33;;;;;23.77;45.26;101735.56;5065796;28;45780;-82
